sensor_id;sensor_type;location;lat;lon;timestamp;temperature;humidity
20891;DHT22;10605;52.968;8.844;2022-07-21T00:00:23;22.00;99.90
20891;DHT22;10605;52.968;8.844;2022-07-21T00:02:49;22.00;99.90
20891;DHT22;10605;52.968;8.844;2022-07-21T00:05:16;22.00;99.90
20891;DHT22;10605;52.968;8.844;2022-07-21T00:07:42;21.80;99.90
20891;DHT22;10605;52.968;8.844;2022-07-21T00:10:09;21.80;99.90
20891;DHT22;10605;52.968;8.844;2022-07-21T00:12:34;21.70;99.90
20891;DHT22;10605;52.968;8.844;2022-07-21T00:15:01;21.60;99.90
20891;DHT22;10605;52.968;8.844;2022-07-21T00:17:27;21.60;99.90
20891;DHT22;10605;52.968;8.844;2022-07-21T00:19:53;21.60;99.90
20891;DHT22;10605;52.968;8.844;2022-07-21T00:22:18;21.60;99.90
20891;DHT22;10605;52.968;8.844;2022-07-21T00:24:44;21.60;99.90
20891;DHT22;10605;52.968;8.844;2022-07-21T00:27:10;21.60;99.90
20891;DHT22;10605;52.968;8.844;2022-07-21T00:29:35;21.50;99.90
20891;DHT22;10605;52.968;8.844;2022-07-21T00:32:01;21.40;99.90
20891;DHT22;10605;52.968;8.844;2022-07-21T00:34:29;21.50;99.90
20891;DHT22;10605;52.968;8.844;2022-07-21T00:36:54;21.50;99.90
20891;DHT22;10605;52.968;8.844;2022-07-21T00:39:20;21.50;99.90
20891;DHT22;10605;52.968;8.844;2022-07-21T00:41:46;21.60;99.90
20891;DHT22;10605;52.968;8.844;2022-07-21T00:44:22;21.60;99.90
20891;DHT22;10605;52.968;8.844;2022-07-21T00:46:49;21.70;99.90
20891;DHT22;10605;52.968;8.844;2022-07-21T00:49:14;21.70;99.90
20891;DHT22;10605;52.968;8.844;2022-07-21T00:51:40;21.70;99.90
20891;DHT22;10605;52.968;8.844;2022-07-21T00:54:06;21.70;99.90
20891;DHT22;10605;52.968;8.844;2022-07-21T00:56:32;21.70;99.90
20891;DHT22;10605;52.968;8.844;2022-07-21T00:58:57;21.70;99.90
20891;DHT22;10605;52.968;8.844;2022-07-21T01:01:23;21.80;99.90
20891;DHT22;10605;52.968;8.844;2022-07-21T01:03:49;21.80;99.90
20891;DHT22;10605;52.968;8.844;2022-07-21T01:06:14;21.80;99.90
20891;DHT22;10605;52.968;8.844;2022-07-21T01:08:40;21.90;99.90
20891;DHT22;10605;52.968;8.844;2022-07-21T01:11:06;21.80;99.90
20891;DHT22;10605;52.968;8.844;2022-07-21T01:13:32;21.80;99.90
20891;DHT22;10605;52.968;8.844;2022-07-21T01:15:58;21.80;99.90
20891;DHT22;10605;52.968;8.844;2022-07-21T01:18:24;21.70;99.90
20891;DHT22;10605;52.968;8.844;2022-07-21T01:20:54;21.70;99.90
20891;DHT22;10605;52.968;8.844;2022-07-21T01:23:21;21.70;99.90
20891;DHT22;10605;52.968;8.844;2022-07-21T01:25:50;21.70;99.90
20891;DHT22;10605;52.968;8.844;2022-07-21T01:28:16;21.70;99.90
20891;DHT22;10605;52.968;8.844;2022-07-21T01:30:43;21.70;99.90
20891;DHT22;10605;52.968;8.844;2022-07-21T01:33:08;21.60;99.90
20891;DHT22;10605;52.968;8.844;2022-07-21T01:35:34;21.50;99.90
20891;DHT22;10605;52.968;8.844;2022-07-21T01:38:00;21.50;99.90
20891;DHT22;10605;52.968;8.844;2022-07-21T01:40:26;21.40;99.90
20891;DHT22;10605;52.968;8.844;2022-07-21T01:43:10;21.40;99.90
20891;DHT22;10605;52.968;8.844;2022-07-21T01:45:36;21.40;99.90
20891;DHT22;10605;52.968;8.844;2022-07-21T01:48:02;21.30;99.90
20891;DHT22;10605;52.968;8.844;2022-07-21T01:50:27;21.20;99.90
20891;DHT22;10605;52.968;8.844;2022-07-21T01:52:56;21.20;99.90
20891;DHT22;10605;52.968;8.844;2022-07-21T01:55:23;21.10;99.90
20891;DHT22;10605;52.968;8.844;2022-07-21T01:57:49;21.10;99.90
20891;DHT22;10605;52.968;8.844;2022-07-21T02:00:15;21.20;99.90
20891;DHT22;10605;52.968;8.844;2022-07-21T02:02:41;21.20;99.90
20891;DHT22;10605;52.968;8.844;2022-07-21T02:05:07;21.10;99.90
20891;DHT22;10605;52.968;8.844;2022-07-21T02:07:33;21.10;99.90
20891;DHT22;10605;52.968;8.844;2022-07-21T02:09:59;21.10;99.90
20891;DHT22;10605;52.968;8.844;2022-07-21T02:12:25;21.00;99.90
20891;DHT22;10605;52.968;8.844;2022-07-21T02:14:50;21.10;99.90
20891;DHT22;10605;52.968;8.844;2022-07-21T02:17:16;21.00;99.90
20891;DHT22;10605;52.968;8.844;2022-07-21T02:19:42;21.10;99.90
20891;DHT22;10605;52.968;8.844;2022-07-21T02:22:07;21.00;99.90
20891;DHT22;10605;52.968;8.844;2022-07-21T02:24:33;21.00;99.90
20891;DHT22;10605;52.968;8.844;2022-07-21T02:27:00;21.00;99.90
20891;DHT22;10605;52.968;8.844;2022-07-21T02:29:26;20.90;99.90
20891;DHT22;10605;52.968;8.844;2022-07-21T02:31:51;20.90;99.90
20891;DHT22;10605;52.968;8.844;2022-07-21T02:34:17;20.80;99.90
20891;DHT22;10605;52.968;8.844;2022-07-21T02:36:43;20.80;99.90
20891;DHT22;10605;52.968;8.844;2022-07-21T02:39:09;20.80;99.90
20891;DHT22;10605;52.968;8.844;2022-07-21T02:41:34;20.90;99.90
20891;DHT22;10605;52.968;8.844;2022-07-21T02:44:00;20.90;99.90
20891;DHT22;10605;52.968;8.844;2022-07-21T02:46:26;20.90;99.90
20891;DHT22;10605;52.968;8.844;2022-07-21T02:48:51;20.90;99.90
20891;DHT22;10605;52.968;8.844;2022-07-21T02:51:18;20.80;99.90
20891;DHT22;10605;52.968;8.844;2022-07-21T02:53:43;20.80;99.90
20891;DHT22;10605;52.968;8.844;2022-07-21T02:56:09;20.90;99.90
20891;DHT22;10605;52.968;8.844;2022-07-21T02:58:35;20.80;99.90
20891;DHT22;10605;52.968;8.844;2022-07-21T03:01:03;20.70;99.90
20891;DHT22;10605;52.968;8.844;2022-07-21T03:03:34;20.60;99.90
20891;DHT22;10605;52.968;8.844;2022-07-21T03:06:01;20.50;99.90
20891;DHT22;10605;52.968;8.844;2022-07-21T03:08:28;20.50;99.90
20891;DHT22;10605;52.968;8.844;2022-07-21T03:10:54;20.50;99.90
20891;DHT22;10605;52.968;8.844;2022-07-21T03:13:20;20.40;99.90
20891;DHT22;10605;52.968;8.844;2022-07-21T03:15:46;20.40;99.90
20891;DHT22;10605;52.968;8.844;2022-07-21T03:18:12;20.50;99.90
20891;DHT22;10605;52.968;8.844;2022-07-21T03:20:39;20.30;99.90
20891;DHT22;10605;52.968;8.844;2022-07-21T03:23:06;20.20;99.90
20891;DHT22;10605;52.968;8.844;2022-07-21T03:25:32;20.30;99.90
20891;DHT22;10605;52.968;8.844;2022-07-21T03:27:58;20.30;99.90
20891;DHT22;10605;52.968;8.844;2022-07-21T03:30:25;20.30;99.90
20891;DHT22;10605;52.968;8.844;2022-07-21T03:32:52;20.30;99.90
20891;DHT22;10605;52.968;8.844;2022-07-21T03:35:18;20.30;99.90
20891;DHT22;10605;52.968;8.844;2022-07-21T03:37:47;20.20;99.90
20891;DHT22;10605;52.968;8.844;2022-07-21T03:40:16;20.20;99.90
20891;DHT22;10605;52.968;8.844;2022-07-21T03:42:42;20.20;99.90
20891;DHT22;10605;52.968;8.844;2022-07-21T03:45:09;20.20;99.90
20891;DHT22;10605;52.968;8.844;2022-07-21T03:47:35;20.10;99.90
20891;DHT22;10605;52.968;8.844;2022-07-21T03:50:01;20.10;99.90
20891;DHT22;10605;52.968;8.844;2022-07-21T03:52:30;20.10;99.90
20891;DHT22;10605;52.968;8.844;2022-07-21T03:54:56;20.10;99.90
20891;DHT22;10605;52.968;8.844;2022-07-21T04:00:20;20.10;99.90
20891;DHT22;10605;52.968;8.844;2022-07-21T04:02:47;20.10;99.90
20891;DHT22;10605;52.968;8.844;2022-07-21T04:05:14;20.10;99.90
20891;DHT22;10605;52.968;8.844;2022-07-21T04:07:42;20.10;99.90
20891;DHT22;10605;52.968;8.844;2022-07-21T04:10:11;20.20;99.90
20891;DHT22;10605;52.968;8.844;2022-07-21T04:12:37;20.30;99.90
20891;DHT22;10605;52.968;8.844;2022-07-21T04:15:05;20.20;99.90
20891;DHT22;10605;52.968;8.844;2022-07-21T04:17:32;20.30;99.90
20891;DHT22;10605;52.968;8.844;2022-07-21T04:19:57;20.30;99.90
20891;DHT22;10605;52.968;8.844;2022-07-21T04:22:23;20.20;99.90
20891;DHT22;10605;52.968;8.844;2022-07-21T04:24:49;20.10;99.90
20891;DHT22;10605;52.968;8.844;2022-07-21T04:27:15;20.00;99.90
20891;DHT22;10605;52.968;8.844;2022-07-21T04:29:40;20.00;99.90
20891;DHT22;10605;52.968;8.844;2022-07-21T04:32:06;20.00;99.90
20891;DHT22;10605;52.968;8.844;2022-07-21T04:34:32;20.00;99.90
20891;DHT22;10605;52.968;8.844;2022-07-21T04:36:57;20.10;99.90
20891;DHT22;10605;52.968;8.844;2022-07-21T04:43:40;20.20;99.90
20891;DHT22;10605;52.968;8.844;2022-07-21T04:46:47;20.30;99.90
20891;DHT22;10605;52.968;8.844;2022-07-21T04:49:36;20.50;99.90
20891;DHT22;10605;52.968;8.844;2022-07-21T04:52:41;20.30;99.90
20891;DHT22;10605;52.968;8.844;2022-07-21T04:55:07;20.30;99.90
20891;DHT22;10605;52.968;8.844;2022-07-21T05:01:25;20.50;99.90
20891;DHT22;10605;52.968;8.844;2022-07-21T05:04:37;20.60;99.90
20891;DHT22;10605;52.968;8.844;2022-07-21T05:07:26;20.80;99.90
20891;DHT22;10605;52.968;8.844;2022-07-21T05:10:28;21.00;99.90
20891;DHT22;10605;52.968;8.844;2022-07-21T05:26:43;20.80;99.90
20891;DHT22;10605;52.968;8.844;2022-07-21T05:29:29;20.70;99.90
20891;DHT22;10605;52.968;8.844;2022-07-21T05:32:23;20.70;99.90
20891;DHT22;10605;52.968;8.844;2022-07-21T05:35:52;20.80;99.90
20891;DHT22;10605;52.968;8.844;2022-07-21T05:38:27;20.80;99.90
20891;DHT22;10605;52.968;8.844;2022-07-21T05:41:57;20.70;99.90
20891;DHT22;10605;52.968;8.844;2022-07-21T05:48:03;20.30;99.90
20891;DHT22;10605;52.968;8.844;2022-07-21T05:50:29;20.40;99.90
20891;DHT22;10605;52.968;8.844;2022-07-21T05:53:04;20.70;99.90
20891;DHT22;10605;52.968;8.844;2022-07-21T05:55:29;21.20;99.90
20891;DHT22;10605;52.968;8.844;2022-07-21T05:58:02;21.30;99.90
20891;DHT22;10605;52.968;8.844;2022-07-21T06:00:33;21.20;99.90
20891;DHT22;10605;52.968;8.844;2022-07-21T06:02:59;21.10;99.90
20891;DHT22;10605;52.968;8.844;2022-07-21T06:06:06;21.10;99.90
20891;DHT22;10605;52.968;8.844;2022-07-21T06:09:01;21.00;99.90
20891;DHT22;10605;52.968;8.844;2022-07-21T06:14:26;21.30;99.90
20891;DHT22;10605;52.968;8.844;2022-07-21T06:17:19;21.20;99.90
20891;DHT22;10605;52.968;8.844;2022-07-21T06:23:40;21.30;99.90
20891;DHT22;10605;52.968;8.844;2022-07-21T06:26:09;21.10;99.90
20891;DHT22;10605;52.968;8.844;2022-07-21T06:29:01;21.30;99.90
20891;DHT22;10605;52.968;8.844;2022-07-21T06:31:51;21.30;99.90
20891;DHT22;10605;52.968;8.844;2022-07-21T06:34:26;21.00;99.90
20891;DHT22;10605;52.968;8.844;2022-07-21T06:36:58;20.70;99.90
20891;DHT22;10605;52.968;8.844;2022-07-21T06:39:24;20.60;99.90
20891;DHT22;10605;52.968;8.844;2022-07-21T06:45:42;20.10;99.90
20891;DHT22;10605;52.968;8.844;2022-07-21T06:48:18;20.20;99.90
20891;DHT22;10605;52.968;8.844;2022-07-21T06:57:57;20.30;99.90
20891;DHT22;10605;52.968;8.844;2022-07-21T07:00:50;20.40;99.90
20891;DHT22;10605;52.968;8.844;2022-07-21T07:07:18;20.30;99.90
20891;DHT22;10605;52.968;8.844;2022-07-21T07:20:37;20.90;99.90
20891;DHT22;10605;52.968;8.844;2022-07-21T07:23:26;20.90;99.90
20891;DHT22;10605;52.968;8.844;2022-07-21T07:25:58;20.80;99.90
20891;DHT22;10605;52.968;8.844;2022-07-21T07:37:53;21.60;99.90
20891;DHT22;10605;52.968;8.844;2022-07-21T07:40:47;21.80;99.90
20891;DHT22;10605;52.968;8.844;2022-07-21T07:43:32;22.10;99.90
20891;DHT22;10605;52.968;8.844;2022-07-21T07:50:02;23.10;99.90
20891;DHT22;10605;52.968;8.844;2022-07-21T07:52:50;23.50;99.90
20891;DHT22;10605;52.968;8.844;2022-07-21T08:01:53;24.00;99.90
20891;DHT22;10605;52.968;8.844;2022-07-21T08:07:57;25.90;99.90
20891;DHT22;10605;52.968;8.844;2022-07-21T08:11:09;25.70;99.90
20891;DHT22;10605;52.968;8.844;2022-07-21T08:13:52;25.40;99.90
20891;DHT22;10605;52.968;8.844;2022-07-21T08:20:04;26.80;99.90
20891;DHT22;10605;52.968;8.844;2022-07-21T08:25:49;29.60;99.90
20891;DHT22;10605;52.968;8.844;2022-07-21T08:28:32;30.90;99.90
20891;DHT22;10605;52.968;8.844;2022-07-21T08:41:17;34.10;99.90
20891;DHT22;10605;52.968;8.844;2022-07-21T08:46:41;32.70;99.90
20891;DHT22;10605;52.968;8.844;2022-07-21T08:52:36;30.90;99.90
20891;DHT22;10605;52.968;8.844;2022-07-21T08:58:30;32.70;99.90
20891;DHT22;10605;52.968;8.844;2022-07-21T09:01:16;29.90;99.90
20891;DHT22;10605;52.968;8.844;2022-07-21T09:04:00;29.90;99.90
20891;DHT22;10605;52.968;8.844;2022-07-21T09:10:07;29.70;99.90
20891;DHT22;10605;52.968;8.844;2022-07-21T09:12:51;28.30;99.90
20891;DHT22;10605;52.968;8.844;2022-07-21T09:18:51;28.70;99.90
20891;DHT22;10605;52.968;8.844;2022-07-21T09:21:34;29.00;99.90
20891;DHT22;10605;52.968;8.844;2022-07-21T09:27:17;29.10;99.90
20891;DHT22;10605;52.968;8.844;2022-07-21T09:30:00;31.20;99.90
20891;DHT22;10605;52.968;8.844;2022-07-21T09:38:38;28.60;99.90
20891;DHT22;10605;52.968;8.844;2022-07-21T09:41:15;28.20;99.90
20891;DHT22;10605;52.968;8.844;2022-07-21T09:43:52;28.10;99.90
20891;DHT22;10605;52.968;8.844;2022-07-21T09:46:25;28.50;99.90
20891;DHT22;10605;52.968;8.844;2022-07-21T09:48:59;28.60;99.90
20891;DHT22;10605;52.968;8.844;2022-07-21T09:51:35;28.40;99.90
20891;DHT22;10605;52.968;8.844;2022-07-21T09:54:21;28.00;99.90
20891;DHT22;10605;52.968;8.844;2022-07-21T09:56:46;27.90;99.90
20891;DHT22;10605;52.968;8.844;2022-07-21T09:59:13;28.50;99.90
20891;DHT22;10605;52.968;8.844;2022-07-21T10:01:40;29.20;99.90
20891;DHT22;10605;52.968;8.844;2022-07-21T10:04:07;31.90;99.90
20891;DHT22;10605;52.968;8.844;2022-07-21T10:06:36;32.30;99.90
20891;DHT22;10605;52.968;8.844;2022-07-21T10:09:05;31.30;99.90
20891;DHT22;10605;52.968;8.844;2022-07-21T10:11:31;31.00;99.90
20891;DHT22;10605;52.968;8.844;2022-07-21T10:13:57;31.60;99.90
20891;DHT22;10605;52.968;8.844;2022-07-21T10:16:23;32.50;99.90
20891;DHT22;10605;52.968;8.844;2022-07-21T10:19:21;33.90;99.90
20891;DHT22;10605;52.968;8.844;2022-07-21T10:22:01;34.80;99.50
20891;DHT22;10605;52.968;8.844;2022-07-21T10:24:30;33.10;99.30
20891;DHT22;10605;52.968;8.844;2022-07-21T10:27:10;32.20;99.90
20891;DHT22;10605;52.968;8.844;2022-07-21T10:32:15;37.40;91.70
20891;DHT22;10605;52.968;8.844;2022-07-21T10:34:41;38.70;83.40
20891;DHT22;10605;52.968;8.844;2022-07-21T10:37:08;39.40;72.00
20891;DHT22;10605;52.968;8.844;2022-07-21T10:39:35;36.40;74.80
20891;DHT22;10605;52.968;8.844;2022-07-21T10:42:16;33.20;89.70
20891;DHT22;10605;52.968;8.844;2022-07-21T10:44:45;32.50;91.90
20891;DHT22;10605;52.968;8.844;2022-07-21T10:47:19;32.50;93.20
20891;DHT22;10605;52.968;8.844;2022-07-21T10:57:40;28.50;99.90
20891;DHT22;10605;52.968;8.844;2022-07-21T11:00:28;27.70;99.90
20891;DHT22;10605;52.968;8.844;2022-07-21T11:03:03;28.10;99.90
20891;DHT22;10605;52.968;8.844;2022-07-21T11:05:32;28.80;99.90
20891;DHT22;10605;52.968;8.844;2022-07-21T11:08:19;33.20;99.90
20891;DHT22;10605;52.968;8.844;2022-07-21T11:10:52;33.10;99.90
20891;DHT22;10605;52.968;8.844;2022-07-21T11:13:20;34.80;96.90
20891;DHT22;10605;52.968;8.844;2022-07-21T11:15:57;36.70;91.60
20891;DHT22;10605;52.968;8.844;2022-07-21T11:18:31;36.10;88.30
20891;DHT22;10605;52.968;8.844;2022-07-21T11:21:14;38.00;85.40
20891;DHT22;10605;52.968;8.844;2022-07-21T11:23:49;36.00;79.30
20891;DHT22;10605;52.968;8.844;2022-07-21T11:26:23;33.20;88.10
20891;DHT22;10605;52.968;8.844;2022-07-21T11:29:04;31.40;93.00
20891;DHT22;10605;52.968;8.844;2022-07-21T11:31:29;30.80;95.80
20891;DHT22;10605;52.968;8.844;2022-07-21T11:33:55;30.60;96.30
20891;DHT22;10605;52.968;8.844;2022-07-21T11:36:29;35.60;86.30
20891;DHT22;10605;52.968;8.844;2022-07-21T11:39:06;38.40;76.60
20891;DHT22;10605;52.968;8.844;2022-07-21T11:41:34;38.30;71.60
20891;DHT22;10605;52.968;8.844;2022-07-21T11:44:02;38.90;64.70
20891;DHT22;10605;52.968;8.844;2022-07-21T11:46:28;39.80;62.80
20891;DHT22;10605;52.968;8.844;2022-07-21T11:49:05;36.00;62.90
20891;DHT22;10605;52.968;8.844;2022-07-21T11:51:31;32.90;73.40
20891;DHT22;10605;52.968;8.844;2022-07-21T11:53:57;31.30;83.30
20891;DHT22;10605;52.968;8.844;2022-07-21T11:56:22;30.30;89.40
20891;DHT22;10605;52.968;8.844;2022-07-21T11:58:49;29.70;92.20
20891;DHT22;10605;52.968;8.844;2022-07-21T12:01:14;30.70;91.70
20891;DHT22;10605;52.968;8.844;2022-07-21T12:03:50;31.60;92.20
20891;DHT22;10605;52.968;8.844;2022-07-21T12:06:17;32.20;90.10
20891;DHT22;10605;52.968;8.844;2022-07-21T12:08:44;34.30;86.40
20891;DHT22;10605;52.968;8.844;2022-07-21T12:11:11;35.40;79.90
20891;DHT22;10605;52.968;8.844;2022-07-21T12:13:56;36.80;75.00
20891;DHT22;10605;52.968;8.844;2022-07-21T12:16:23;36.60;72.30
20891;DHT22;10605;52.968;8.844;2022-07-21T12:18:49;38.30;62.30
20891;DHT22;10605;52.968;8.844;2022-07-21T12:24:11;40.80;54.10
20891;DHT22;10605;52.968;8.844;2022-07-21T12:26:37;36.50;56.80
20891;DHT22;10605;52.968;8.844;2022-07-21T12:29:03;33.90;65.70
20891;DHT22;10605;52.968;8.844;2022-07-21T12:31:33;32.80;70.90
20891;DHT22;10605;52.968;8.844;2022-07-21T12:34:14;34.40;67.60
20891;DHT22;10605;52.968;8.844;2022-07-21T12:36:44;38.10;62.90
20891;DHT22;10605;52.968;8.844;2022-07-21T12:39:28;38.90;53.10
20891;DHT22;10605;52.968;8.844;2022-07-21T12:42:30;38.70;54.70
20891;DHT22;10605;52.968;8.844;2022-07-21T12:44:57;35.20;58.70
20891;DHT22;10605;52.968;8.844;2022-07-21T12:47:23;32.70;69.30
20891;DHT22;10605;52.968;8.844;2022-07-21T12:52:24;30.10;82.60
20891;DHT22;10605;52.968;8.844;2022-07-21T12:54:51;29.30;86.80
20891;DHT22;10605;52.968;8.844;2022-07-21T12:57:16;28.70;92.10
20891;DHT22;10605;52.968;8.844;2022-07-21T12:59:42;28.40;92.20
20891;DHT22;10605;52.968;8.844;2022-07-21T13:02:08;28.20;96.70
20891;DHT22;10605;52.968;8.844;2022-07-21T13:04:34;28.40;99.90
20891;DHT22;10605;52.968;8.844;2022-07-21T13:07:00;28.90;99.90
20891;DHT22;10605;52.968;8.844;2022-07-21T13:09:25;33.50;98.20
20891;DHT22;10605;52.968;8.844;2022-07-21T13:11:51;36.00;91.20
20891;DHT22;10605;52.968;8.844;2022-07-21T13:14:17;34.10;89.10
20891;DHT22;10605;52.968;8.844;2022-07-21T13:16:45;32.40;91.00
20891;DHT22;10605;52.968;8.844;2022-07-21T13:19:11;31.00;93.40
20891;DHT22;10605;52.968;8.844;2022-07-21T13:21:37;30.60;96.40
20891;DHT22;10605;52.968;8.844;2022-07-21T13:24:03;30.30;96.30
20891;DHT22;10605;52.968;8.844;2022-07-21T13:26:28;30.30;96.70
20891;DHT22;10605;52.968;8.844;2022-07-21T13:28:54;30.20;97.40
20891;DHT22;10605;52.968;8.844;2022-07-21T13:31:20;30.10;98.30
20891;DHT22;10605;52.968;8.844;2022-07-21T13:33:47;29.50;99.00
20891;DHT22;10605;52.968;8.844;2022-07-21T13:36:13;29.50;99.90
20891;DHT22;10605;52.968;8.844;2022-07-21T13:38:38;29.80;99.30
20891;DHT22;10605;52.968;8.844;2022-07-21T13:41:06;29.20;99.90
20891;DHT22;10605;52.968;8.844;2022-07-21T13:43:32;29.20;99.90
20891;DHT22;10605;52.968;8.844;2022-07-21T13:45:58;29.10;99.90
20891;DHT22;10605;52.968;8.844;2022-07-21T13:48:23;29.00;99.90
20891;DHT22;10605;52.968;8.844;2022-07-21T13:50:49;29.50;99.90
20891;DHT22;10605;52.968;8.844;2022-07-21T13:53:15;28.50;99.90
20891;DHT22;10605;52.968;8.844;2022-07-21T13:55:40;28.70;99.90
20891;DHT22;10605;52.968;8.844;2022-07-21T13:58:06;29.30;99.90
20891;DHT22;10605;52.968;8.844;2022-07-21T14:00:35;29.20;99.90
20891;DHT22;10605;52.968;8.844;2022-07-21T14:03:00;28.70;99.90
20891;DHT22;10605;52.968;8.844;2022-07-21T14:05:26;28.70;99.90
20891;DHT22;10605;52.968;8.844;2022-07-21T14:07:52;28.50;99.90
20891;DHT22;10605;52.968;8.844;2022-07-21T14:10:18;28.60;99.90
20891;DHT22;10605;52.968;8.844;2022-07-21T14:12:44;28.90;99.90
20891;DHT22;10605;52.968;8.844;2022-07-21T14:15:13;29.50;99.90
20891;DHT22;10605;52.968;8.844;2022-07-21T14:17:39;29.80;99.90
20891;DHT22;10605;52.968;8.844;2022-07-21T14:20:05;29.90;99.90
20891;DHT22;10605;52.968;8.844;2022-07-21T14:22:31;30.00;99.90
20891;DHT22;10605;52.968;8.844;2022-07-21T14:24:56;30.00;99.90
20891;DHT22;10605;52.968;8.844;2022-07-21T14:27:41;29.50;99.90
20891;DHT22;10605;52.968;8.844;2022-07-21T14:30:07;29.60;99.90
20891;DHT22;10605;52.968;8.844;2022-07-21T14:32:33;29.70;99.90
20891;DHT22;10605;52.968;8.844;2022-07-21T14:34:58;29.10;99.90
20891;DHT22;10605;52.968;8.844;2022-07-21T14:37:24;28.80;99.90
20891;DHT22;10605;52.968;8.844;2022-07-21T14:39:50;28.70;99.90
20891;DHT22;10605;52.968;8.844;2022-07-21T14:42:17;28.60;99.90
20891;DHT22;10605;52.968;8.844;2022-07-21T14:44:43;28.50;99.90
20891;DHT22;10605;52.968;8.844;2022-07-21T14:47:09;28.20;99.90
20891;DHT22;10605;52.968;8.844;2022-07-21T14:49:35;28.00;99.90
20891;DHT22;10605;52.968;8.844;2022-07-21T14:52:02;28.00;99.90
20891;DHT22;10605;52.968;8.844;2022-07-21T14:54:29;28.00;99.90
20891;DHT22;10605;52.968;8.844;2022-07-21T14:56:54;27.70;99.90
20891;DHT22;10605;52.968;8.844;2022-07-21T14:59:20;27.60;99.90
20891;DHT22;10605;52.968;8.844;2022-07-21T15:01:45;27.30;99.90
20891;DHT22;10605;52.968;8.844;2022-07-21T15:04:11;27.30;99.90
20891;DHT22;10605;52.968;8.844;2022-07-21T15:06:37;27.30;99.90
20891;DHT22;10605;52.968;8.844;2022-07-21T15:09:03;27.30;99.90
20891;DHT22;10605;52.968;8.844;2022-07-21T15:11:29;27.40;99.90
20891;DHT22;10605;52.968;8.844;2022-07-21T15:13:54;27.30;99.90
20891;DHT22;10605;52.968;8.844;2022-07-21T15:16:20;27.30;99.90
20891;DHT22;10605;52.968;8.844;2022-07-21T15:18:46;27.30;99.90
20891;DHT22;10605;52.968;8.844;2022-07-21T15:21:12;27.30;99.90
20891;DHT22;10605;52.968;8.844;2022-07-21T15:23:38;27.10;99.90
20891;DHT22;10605;52.968;8.844;2022-07-21T15:26:04;27.30;99.90
20891;DHT22;10605;52.968;8.844;2022-07-21T15:28:30;27.40;99.90
20891;DHT22;10605;52.968;8.844;2022-07-21T15:30:55;27.40;99.90
20891;DHT22;10605;52.968;8.844;2022-07-21T15:33:21;27.50;99.90
20891;DHT22;10605;52.968;8.844;2022-07-21T15:35:47;27.50;99.90
20891;DHT22;10605;52.968;8.844;2022-07-21T15:38:14;27.30;99.90
20891;DHT22;10605;52.968;8.844;2022-07-21T15:40:40;27.10;99.90
20891;DHT22;10605;52.968;8.844;2022-07-21T15:43:06;27.00;99.90
20891;DHT22;10605;52.968;8.844;2022-07-21T15:45:32;26.90;99.90
20891;DHT22;10605;52.968;8.844;2022-07-21T15:47:57;26.50;99.90
20891;DHT22;10605;52.968;8.844;2022-07-21T15:50:25;26.40;99.90
20891;DHT22;10605;52.968;8.844;2022-07-21T15:52:52;26.00;99.90
20891;DHT22;10605;52.968;8.844;2022-07-21T15:55:18;25.50;99.90
20891;DHT22;10605;52.968;8.844;2022-07-21T15:57:43;25.10;99.90
20891;DHT22;10605;52.968;8.844;2022-07-21T16:00:12;25.00;99.90
20891;DHT22;10605;52.968;8.844;2022-07-21T16:02:40;24.60;99.90
20891;DHT22;10605;52.968;8.844;2022-07-21T16:05:08;24.60;99.90
20891;DHT22;10605;52.968;8.844;2022-07-21T16:07:34;24.40;99.90
20891;DHT22;10605;52.968;8.844;2022-07-21T16:09:59;24.20;99.90
20891;DHT22;10605;52.968;8.844;2022-07-21T16:12:25;24.10;99.90
20891;DHT22;10605;52.968;8.844;2022-07-21T16:14:50;23.80;99.90
20891;DHT22;10605;52.968;8.844;2022-07-21T16:17:16;23.50;99.90
20891;DHT22;10605;52.968;8.844;2022-07-21T16:19:42;23.30;99.90
20891;DHT22;10605;52.968;8.844;2022-07-21T16:22:08;23.20;99.90
20891;DHT22;10605;52.968;8.844;2022-07-21T16:24:34;23.20;99.90
20891;DHT22;10605;52.968;8.844;2022-07-21T16:27:00;23.10;99.90
20891;DHT22;10605;52.968;8.844;2022-07-21T16:29:26;23.00;99.90
20891;DHT22;10605;52.968;8.844;2022-07-21T16:31:52;23.30;99.90
20891;DHT22;10605;52.968;8.844;2022-07-21T16:34:24;23.60;99.90
20891;DHT22;10605;52.968;8.844;2022-07-21T16:36:50;24.00;99.90
20891;DHT22;10605;52.968;8.844;2022-07-21T16:39:16;24.40;99.90
20891;DHT22;10605;52.968;8.844;2022-07-21T16:41:42;24.40;99.90
20891;DHT22;10605;52.968;8.844;2022-07-21T16:44:08;24.70;99.90
20891;DHT22;10605;52.968;8.844;2022-07-21T16:46:36;24.90;99.90
20891;DHT22;10605;52.968;8.844;2022-07-21T16:49:02;24.80;99.90
20891;DHT22;10605;52.968;8.844;2022-07-21T16:51:28;24.80;99.90
20891;DHT22;10605;52.968;8.844;2022-07-21T16:53:53;24.90;99.90
20891;DHT22;10605;52.968;8.844;2022-07-21T16:56:19;24.80;99.90
20891;DHT22;10605;52.968;8.844;2022-07-21T16:58:45;24.90;99.90
20891;DHT22;10605;52.968;8.844;2022-07-21T17:01:10;25.00;99.90
20891;DHT22;10605;52.968;8.844;2022-07-21T17:03:36;25.10;99.90
20891;DHT22;10605;52.968;8.844;2022-07-21T17:06:02;25.20;99.90
20891;DHT22;10605;52.968;8.844;2022-07-21T17:08:28;25.20;99.90
20891;DHT22;10605;52.968;8.844;2022-07-21T17:10:53;25.10;99.90
20891;DHT22;10605;52.968;8.844;2022-07-21T17:13:19;25.10;99.90
20891;DHT22;10605;52.968;8.844;2022-07-21T17:15:45;24.90;99.90
20891;DHT22;10605;52.968;8.844;2022-07-21T17:18:10;24.80;99.90
20891;DHT22;10605;52.968;8.844;2022-07-21T17:20:36;24.70;99.90
20891;DHT22;10605;52.968;8.844;2022-07-21T17:23:02;24.40;99.90
20891;DHT22;10605;52.968;8.844;2022-07-21T17:25:27;24.40;99.90
20891;DHT22;10605;52.968;8.844;2022-07-21T17:27:53;24.30;99.90
20891;DHT22;10605;52.968;8.844;2022-07-21T17:30:19;24.20;99.90
20891;DHT22;10605;52.968;8.844;2022-07-21T17:32:45;24.00;99.90
20891;DHT22;10605;52.968;8.844;2022-07-21T17:35:11;24.00;99.90
20891;DHT22;10605;52.968;8.844;2022-07-21T17:37:37;23.80;99.90
20891;DHT22;10605;52.968;8.844;2022-07-21T17:40:07;23.80;99.90
20891;DHT22;10605;52.968;8.844;2022-07-21T17:42:34;23.80;99.90
20891;DHT22;10605;52.968;8.844;2022-07-21T17:45:00;23.70;99.90
20891;DHT22;10605;52.968;8.844;2022-07-21T17:47:26;23.60;99.90
20891;DHT22;10605;52.968;8.844;2022-07-21T17:49:51;23.50;99.90
20891;DHT22;10605;52.968;8.844;2022-07-21T17:52:17;23.50;99.90
20891;DHT22;10605;52.968;8.844;2022-07-21T17:54:43;23.20;99.90
20891;DHT22;10605;52.968;8.844;2022-07-21T17:57:08;23.20;99.90
20891;DHT22;10605;52.968;8.844;2022-07-21T17:59:53;23.20;99.90
20891;DHT22;10605;52.968;8.844;2022-07-21T18:02:18;23.20;99.90
20891;DHT22;10605;52.968;8.844;2022-07-21T18:04:44;23.10;99.90
20891;DHT22;10605;52.968;8.844;2022-07-21T18:07:10;23.00;99.90
20891;DHT22;10605;52.968;8.844;2022-07-21T18:09:36;22.80;99.90